createdAt,value
2019-02-16T00:01:43.667Z,36.03
2019-02-16T00:04:30.652Z,35.07
2019-02-16T00:07:17.066Z,33.87
2019-02-16T00:10:04.191Z,34.27
2019-02-16T00:12:51.331Z,34.77
2019-02-16T00:15:38.199Z,34.40
2019-02-16T00:18:25.207Z,33.93
2019-02-16T00:21:12.318Z,33.93
2019-02-16T00:24:01.796Z,34.73
2019-02-16T00:26:48.645Z,35.43
2019-02-16T00:29:34.979Z,35.30
2019-02-16T00:32:21.839Z,35.60
2019-02-16T00:35:09.006Z,35.03
2019-02-16T00:37:56.016Z,33.20
2019-02-16T00:40:43.017Z,34.57
2019-02-16T00:43:29.431Z,33.83
2019-02-16T00:46:16.251Z,34.53
2019-02-16T00:49:03.486Z,34.37
2019-02-16T00:51:50.484Z,34.00
2019-02-16T00:54:37.016Z,34.00
2019-02-16T00:57:23.739Z,34.33
2019-02-16T01:00:11.550Z,33.90
2019-02-16T01:02:58.572Z,34.47
2019-02-16T01:05:45.823Z,32.73
2019-02-16T01:08:32.951Z,32.13
2019-02-16T01:11:19.482Z,32.63
2019-02-16T01:14:06.581Z,32.73
2019-02-16T01:16:52.779Z,34.50
2019-02-16T01:19:39.923Z,34.63
2019-02-16T01:22:26.903Z,33.43
2019-02-16T01:25:13.183Z,31.77
2019-02-16T01:28:00.327Z,32.93
2019-02-16T01:30:47.256Z,33.47
2019-02-16T01:33:34.017Z,32.97
2019-02-16T01:36:20.914Z,33.23
2019-02-16T01:39:07.831Z,32.23
2019-02-16T01:41:54.293Z,33.07
2019-02-16T01:44:41.379Z,32.83
2019-02-16T01:47:27.867Z,33.20
2019-02-16T01:50:14.384Z,33.30
2019-02-16T01:53:01.411Z,33.27
2019-02-16T01:55:48.188Z,33.40
2019-02-16T01:58:35.352Z,32.77
2019-02-16T02:01:22.031Z,33.80
2019-02-16T02:04:09.055Z,33.10
2019-02-16T02:06:56.083Z,32.30
2019-02-16T02:09:42.451Z,33.47
2019-02-16T02:12:29.207Z,33.27
2019-02-16T02:15:16.039Z,32.93
2019-02-16T02:18:02.934Z,33.00
2019-02-16T02:20:49.567Z,32.53
2019-02-16T02:23:36.443Z,32.87
2019-02-16T02:26:22.978Z,32.83
2019-02-16T02:29:09.490Z,33.07
2019-02-16T02:31:56.580Z,35.03
2019-02-16T02:34:43.664Z,34.63
2019-02-16T02:37:30.392Z,33.70
2019-02-16T02:40:17.360Z,33.97
2019-02-16T02:43:04.399Z,34.43
2019-02-16T02:45:50.705Z,33.90
2019-02-16T02:48:37.871Z,32.73
2019-02-16T02:51:24.758Z,34.17
2019-02-16T02:54:11.608Z,34.33
2019-02-16T02:56:58.636Z,34.00
2019-02-16T02:59:45.571Z,33.77
2019-02-16T03:02:31.999Z,34.07
2019-02-16T03:05:18.827Z,32.97
2019-02-16T03:08:05.796Z,33.50
2019-02-16T03:10:52.103Z,33.17
2019-02-16T03:13:39.136Z,33.17
2019-02-16T03:16:26.186Z,32.40
2019-02-16T03:19:13.349Z,33.00
2019-02-16T03:22:02.689Z,31.83
2019-02-16T03:24:48.316Z,31.80
2019-02-16T03:27:35.435Z,32.20
2019-02-16T03:30:21.875Z,32.40
2019-02-16T03:33:08.220Z,33.30
2019-02-16T03:35:54.781Z,33.40
2019-02-16T03:38:41.023Z,33.50
2019-02-16T03:41:27.464Z,34.47
2019-02-16T03:44:14.490Z,32.90
2019-02-16T03:47:01.030Z,32.83
2019-02-16T03:49:47.312Z,32.37
2019-02-16T03:52:34.047Z,32.47
2019-02-16T03:55:20.693Z,32.00
2019-02-16T03:58:07.056Z,32.43
2019-02-16T04:00:54.476Z,32.80
2019-02-16T04:03:41.163Z,31.20
2019-02-16T04:06:27.398Z,32.67
2019-02-16T04:09:14.450Z,30.07
2019-02-16T04:12:01.640Z,30.93
2019-02-16T04:14:48.078Z,29.30
2019-02-16T04:17:34.873Z,29.80
2019-02-16T04:20:21.684Z,31.20
2019-02-16T04:23:07.912Z,32.50
2019-02-16T04:25:54.750Z,32.47
2019-02-16T04:28:41.272Z,31.60
2019-02-16T04:31:28.248Z,30.70
2019-02-16T04:34:15.288Z,30.73
2019-02-16T04:37:02.492Z,29.70
2019-02-16T04:39:49.327Z,30.43
2019-02-16T04:42:35.837Z,29.37
2019-02-16T04:45:22.197Z,31.27
2019-02-16T04:48:09.156Z,29.90
2019-02-16T04:50:56.168Z,30.03
2019-02-16T04:53:43.025Z,30.17
2019-02-16T04:56:30.159Z,30.73
2019-02-16T04:59:17.315Z,30.63
2019-02-16T05:02:04.068Z,30.80
2019-02-16T05:04:52.174Z,29.87
2019-02-16T05:07:39.044Z,29.83
2019-02-16T05:10:25.608Z,30.30
2019-02-16T05:13:12.443Z,29.93
2019-02-16T05:15:59.083Z,32.70
2019-02-16T05:18:45.576Z,31.03
2019-02-16T05:21:32.295Z,31.20
2019-02-16T05:24:19.267Z,30.73
2019-02-16T05:27:06.048Z,30.60
2019-02-16T05:29:52.347Z,30.53
2019-02-16T05:32:39.431Z,30.53
2019-02-16T05:35:26.055Z,31.13
2019-02-16T05:38:11.092Z,30.40
2019-02-16T05:41:05.036Z,31.43
2019-02-16T05:43:51.364Z,30.90
2019-02-16T05:46:37.747Z,31.03
2019-02-16T05:49:24.064Z,32.47
2019-02-16T05:52:11.032Z,30.63
2019-02-16T05:54:57.659Z,31.63
2019-02-16T05:57:44.568Z,31.07
2019-02-16T06:00:31.596Z,32.00
2019-02-16T06:03:18.450Z,33.20
2019-02-16T06:06:05.336Z,32.57
2019-02-16T06:08:52.044Z,31.30
2019-02-16T06:11:39.231Z,33.50
2019-02-16T06:14:25.801Z,33.80
2019-02-16T06:17:12.160Z,31.73
2019-02-16T06:19:59.358Z,32.03
2019-02-16T06:22:46.431Z,32.23
2019-02-16T06:25:33.006Z,33.17
2019-02-16T06:28:20.255Z,32.40
2019-02-16T06:31:07.951Z,32.33
2019-02-16T06:33:54.873Z,32.17
2019-02-16T06:36:42.460Z,32.60
2019-02-16T06:39:28.832Z,31.23
2019-02-16T06:42:15.396Z,31.50
2019-02-16T06:45:02.550Z,31.57
2019-02-16T06:47:49.207Z,30.90
2019-02-16T06:50:38.226Z,31.43
2019-02-16T06:53:26.285Z,31.33
2019-02-16T06:56:37.792Z,31.37
2019-02-16T06:59:24.077Z,30.83
2019-02-16T07:02:11.143Z,31.80
2019-02-16T07:04:58.453Z,33.13
2019-02-16T07:07:48.554Z,32.20
2019-02-16T07:10:23.366Z,33.27
2019-02-16T07:13:17.317Z,31.20
2019-02-16T07:16:22.864Z,31.70
2019-02-16T07:19:28.719Z,33.07
2019-02-16T07:22:15.088Z,32.67
2019-02-16T07:25:02.334Z,32.67
2019-02-16T07:27:48.564Z,33.10
2019-02-16T07:30:34.878Z,32.33
2019-02-16T07:33:21.847Z,33.17
2019-02-16T07:36:08.384Z,30.87
2019-02-16T07:38:54.612Z,30.67
2019-02-16T07:41:41.016Z,33.07
2019-02-16T07:44:46.412Z,32.90
2019-02-16T07:47:52.501Z,38.73
2019-02-16T07:50:50.267Z,42.93
2019-02-16T07:53:55.847Z,41.93
2019-02-16T07:57:07.683Z,33.47
2019-02-16T08:00:10.031Z,37.33
2019-02-16T08:03:06.212Z,48.63
2019-02-16T08:06:09.392Z,41.87
2019-02-16T08:09:15.103Z,53.87
2019-02-16T08:12:10.664Z,45.60
2019-02-16T08:15:16.560Z,46.77
2019-02-16T08:18:22.697Z,42.20
2019-02-16T08:21:28.809Z,39.93
2019-02-16T08:24:40.857Z,41.57
2019-02-16T08:27:46.390Z,40.03
2019-02-16T08:30:43.952Z,43.83
2019-02-16T08:33:52.412Z,41.30
2019-02-16T08:36:53.319Z,42.63
2019-02-16T08:39:59.506Z,42.17
2019-02-16T08:43:05.238Z,42.67
2019-02-16T08:46:10.964Z,44.87
2019-02-16T08:49:14.515Z,45.40
2019-02-16T08:52:09.471Z,43.50
2019-02-16T08:55:03.727Z,42.67
2019-02-16T08:58:09.485Z,44.83
2019-02-16T09:01:15.016Z,45.30
2019-02-16T09:04:26.535Z,44.10
2019-02-16T09:07:32.458Z,46.57
2019-02-16T09:10:37.940Z,43.57
2019-02-16T09:13:43.540Z,48.57
2019-02-16T09:16:41.219Z,44.53
2019-02-16T09:19:46.513Z,40.70
2019-02-16T09:22:42.505Z,38.93
2019-02-16T09:25:48.432Z,36.60
2019-02-16T09:28:57.351Z,40.87
2019-02-16T09:31:50.208Z,44.80
2019-02-16T09:35:01.616Z,41.47
2019-02-16T09:38:07.295Z,39.40
2019-02-16T09:41:02.179Z,40.77
2019-02-16T09:44:08.069Z,40.90
2019-02-16T09:47:13.696Z,43.13
2019-02-16T09:50:19.562Z,41.07
2019-02-16T09:53:25.469Z,39.87
2019-02-16T09:56:31.096Z,39.50
2019-02-16T09:59:36.967Z,39.47
2019-02-16T10:02:36.396Z,40.37
2019-02-16T10:05:42.161Z,38.20
2019-02-16T10:08:48.068Z,38.90
2019-02-16T10:11:53.800Z,37.73
2019-02-16T10:14:59.578Z,37.20
2019-02-16T10:18:08.162Z,36.80
2019-02-16T10:21:13.798Z,37.03
2019-02-16T10:27:35.508Z,37.93
2019-02-16T10:30:37.432Z,37.10
2019-02-16T10:33:32.528Z,36.03
2019-02-16T10:36:31.523Z,36.37
2019-02-16T10:39:24.189Z,36.43
2019-02-16T10:42:33.604Z,35.43
2019-02-16T10:45:59.299Z,36.57
2019-02-16T10:48:51.387Z,35.83
2019-02-16T10:51:57.520Z,36.53
2019-02-16T10:55:03.359Z,36.73
2019-02-16T10:57:55.992Z,36.90
2019-02-16T11:01:01.736Z,36.70
2019-02-16T11:03:53.147Z,37.10
2019-02-16T11:07:01.407Z,41.13
2019-02-16T11:09:59.078Z,36.07
2019-02-16T11:13:04.773Z,38.00
2019-02-16T11:16:10.287Z,36.30
2019-02-16T11:19:16.448Z,36.07
2019-02-16T11:22:14.446Z,35.30
2019-02-16T11:25:20.600Z,36.07
2019-02-16T11:28:26.072Z,36.87
2019-02-16T11:31:31.970Z,35.87
2019-02-16T11:34:38.180Z,36.43
2019-02-16T11:37:37.271Z,36.77
2019-02-16T11:40:42.788Z,37.20
2019-02-16T11:43:41.097Z,36.27
2019-02-16T11:47:06.956Z,37.40
2019-02-16T11:50:13.220Z,36.37
2019-02-16T11:53:19.364Z,36.40
2019-02-16T11:56:27.860Z,36.77
2019-02-16T11:59:22.076Z,36.33
2019-02-16T12:02:27.892Z,37.13
2019-02-16T12:05:26.393Z,36.97
2019-02-16T12:08:24.071Z,37.33
2019-02-16T12:11:30.056Z,37.53
2019-02-16T12:14:41.852Z,37.23
2019-02-16T12:17:37.143Z,36.87
2019-02-16T12:23:52.614Z,38.23
2019-02-16T12:26:58.055Z,38.00
2019-02-16T12:30:03.820Z,37.43
2019-02-16T12:33:00.080Z,37.50
2019-02-16T12:36:02.543Z,37.37
2019-02-16T12:39:07.944Z,37.93
2019-02-16T12:42:13.602Z,37.03
2019-02-16T12:45:21.329Z,37.83
2019-02-16T12:48:28.697Z,37.00
2019-02-16T12:51:34.572Z,37.70
2019-02-16T12:54:40.772Z,38.50
2019-02-16T12:57:46.753Z,37.40
2019-02-16T13:00:52.359Z,37.17
2019-02-16T13:03:58.480Z,37.23
2019-02-16T13:06:51.593Z,36.97
2019-02-16T13:09:43.562Z,38.10
2019-02-16T13:12:51.493Z,36.63
2019-02-16T13:15:48.091Z,36.67
2019-02-16T13:18:45.691Z,37.40
2019-02-16T13:24:45.547Z,37.90
2019-02-16T13:27:58.544Z,40.20
2019-02-16T13:30:51.701Z,39.03
2019-02-16T13:33:46.780Z,38.63
2019-02-16T13:36:43.548Z,38.43
2019-02-16T13:39:52.571Z,38.73
2019-02-16T13:42:45.227Z,39.13
2019-02-16T13:45:37.253Z,36.47
2019-02-16T13:48:39.260Z,36.33
2019-02-16T13:51:47.925Z,36.67
2019-02-16T13:54:53.946Z,36.57
2019-02-16T13:57:54.057Z,37.10
2019-02-16T14:00:47.755Z,36.93
2019-02-16T14:03:44.740Z,37.03
2019-02-16T14:06:40.588Z,36.10
2019-02-16T14:09:40.046Z,36.57
2019-02-16T14:12:33.539Z,36.07
2019-02-16T14:15:39.051Z,34.80
2019-02-16T14:18:25.780Z,35.80
2019-02-16T14:21:12.583Z,35.13
2019-02-16T14:23:59.176Z,35.77
2019-02-16T14:26:49.655Z,34.83
2019-02-16T14:29:36.423Z,35.70
2019-02-16T14:32:23.096Z,34.87
2019-02-16T14:35:10.172Z,34.67
2019-02-16T14:38:16.145Z,34.80
2019-02-16T14:41:02.987Z,35.13
2019-02-16T14:43:50.128Z,34.40
2019-02-16T14:46:36.597Z,34.33
2019-02-16T14:49:23.655Z,34.37
2019-02-16T14:52:09.903Z,35.57
2019-02-16T14:54:56.570Z,35.87
2019-02-16T14:57:43.694Z,35.90
2019-02-16T15:00:30.364Z,35.03
2019-02-16T15:03:16.723Z,36.30
2019-02-16T15:06:03.404Z,36.00
2019-02-16T15:08:50.357Z,34.53
2019-02-16T15:11:37.171Z,35.40
2019-02-16T15:14:23.399Z,34.70
2019-02-16T15:17:10.217Z,35.23
2019-02-16T15:19:56.520Z,34.83
2019-02-16T15:22:43.006Z,36.00
2019-02-16T15:25:30.039Z,35.27
2019-02-16T15:28:16.340Z,35.07
2019-02-16T15:31:03.289Z,35.00
2019-02-16T15:33:50.428Z,37.33
2019-02-16T15:36:38.304Z,35.87
2019-02-16T15:39:25.220Z,35.93
2019-02-16T15:42:12.023Z,35.87
2019-02-16T15:44:58.327Z,35.13
2019-02-16T15:47:45.540Z,35.60
2019-02-16T15:50:32.635Z,36.97
2019-02-16T15:53:19.394Z,37.10
2019-02-16T15:56:10.480Z,35.77
2019-02-16T15:58:56.103Z,36.13
2019-02-16T16:01:42.704Z,37.07
2019-02-16T16:04:29.772Z,36.23
2019-02-16T16:07:17.804Z,37.50
2019-02-16T16:14:01.499Z,37.00
2019-02-16T16:16:54.391Z,37.60
2019-02-16T16:19:50.564Z,39.70
2019-02-16T16:22:59.512Z,39.83
2019-02-16T16:26:05.465Z,38.93
2019-02-16T16:29:01.943Z,35.60
2019-02-16T16:32:10.620Z,37.00
2019-02-16T16:38:21.800Z,38.10
2019-02-16T16:41:27.076Z,40.07
2019-02-16T16:44:38.813Z,40.53
2019-02-16T16:47:45.016Z,41.30
2019-02-16T16:50:47.403Z,37.33
2019-02-16T16:53:47.873Z,38.37
2019-02-16T16:56:41.828Z,36.37
2019-02-16T16:59:48.548Z,38.63
2019-02-16T17:02:42.652Z,38.27
2019-02-16T17:05:36.966Z,38.90
2019-02-16T17:08:43.118Z,40.83
2019-02-16T17:11:48.565Z,41.27
2019-02-16T17:14:55.444Z,38.77
2019-02-16T17:17:53.031Z,39.37
2019-02-16T17:20:58.937Z,37.60
2019-02-16T17:24:11.026Z,38.33
2019-02-16T17:27:04.703Z,37.40
2019-02-16T17:30:10.657Z,37.73
2019-02-16T17:33:16.818Z,38.37
2019-02-16T17:36:23.037Z,37.63
2019-02-16T17:39:17.328Z,38.13
2019-02-16T17:42:23.183Z,38.00
2019-02-16T17:45:18.612Z,38.03
2019-02-16T17:48:16.911Z,37.67
2019-02-16T17:51:22.328Z,36.53
2019-02-16T17:54:17.052Z,37.83
2019-02-16T17:57:28.748Z,37.07
2019-02-16T18:00:34.852Z,36.77
2019-02-16T18:07:01.212Z,35.93
2019-02-16T18:10:06.976Z,36.17
2019-02-16T18:13:12.280Z,36.20
2019-02-16T18:16:05.933Z,37.17
2019-02-16T18:19:07.238Z,35.83
2019-02-16T18:22:39.994Z,36.87
2019-02-16T18:25:38.763Z,35.00
2019-02-16T18:28:44.842Z,33.40
2019-02-16T18:31:50.531Z,34.50
2019-02-16T18:34:51.631Z,33.47
2019-02-16T18:37:57.291Z,32.30
2019-02-16T18:41:02.947Z,32.20
2019-02-16T18:44:09.053Z,32.23
2019-02-16T18:47:18.951Z,32.07
2019-02-16T18:50:24.449Z,31.50
2019-02-16T18:53:22.860Z,31.23
2019-02-16T18:56:28.959Z,30.47
2019-02-16T18:59:35.080Z,33.00
2019-02-16T19:02:31.928Z,33.13
2019-02-16T19:05:38.189Z,31.60
2019-02-16T19:08:47.027Z,30.53
2019-02-16T19:11:52.415Z,35.73
2019-02-16T19:18:18.255Z,30.80
2019-02-16T19:21:20.138Z,31.63
2019-02-16T19:24:29.167Z,32.50
2019-02-16T19:27:25.464Z,32.20
2019-02-16T19:30:29.880Z,34.10
2019-02-16T19:33:30.671Z,33.77
2019-02-16T19:36:36.515Z,33.50
2019-02-16T19:39:37.920Z,31.93
2019-02-16T19:42:36.631Z,30.83
2019-02-16T19:45:42.236Z,30.53
2019-02-16T19:48:41.663Z,30.80
2019-02-16T19:51:41.711Z,31.03
2019-02-16T19:54:48.570Z,31.77
2019-02-16T19:57:54.453Z,30.37
2019-02-16T20:00:47.164Z,31.23
2019-02-16T20:03:53.113Z,32.27
2019-02-16T20:06:59.753Z,33.33
2019-02-16T20:10:05.840Z,52.67
2019-02-16T20:13:11.952Z,34.27
2019-02-16T20:16:17.688Z,34.10
2019-02-16T20:19:18.631Z,33.87
2019-02-16T20:22:24.272Z,34.60
2019-02-16T20:25:16.857Z,34.43
2019-02-16T20:28:22.695Z,34.13
2019-02-16T20:31:28.463Z,33.90
2019-02-16T20:34:22.255Z,33.30
2019-02-16T20:37:27.624Z,32.23
2019-02-16T20:40:33.040Z,31.53
2019-02-16T20:43:25.388Z,31.50
2019-02-16T20:46:31.573Z,30.97
2019-02-16T20:53:10.892Z,31.47
2019-02-16T20:56:10.101Z,31.00
2019-02-16T20:59:15.768Z,31.10
2019-02-16T21:02:21.390Z,31.33
2019-02-16T21:05:17.533Z,31.93
2019-02-16T21:08:15.919Z,31.67
2019-02-16T21:11:21.345Z,31.47
2019-02-16T21:14:27.571Z,31.10
2019-02-16T21:17:33.395Z,34.33
2019-02-16T21:20:39.094Z,39.67
2019-02-16T21:23:45.334Z,36.90
2019-02-16T21:26:51.002Z,36.90
2019-02-16T21:29:58.588Z,34.87
2019-02-16T21:33:03.824Z,35.83
2019-02-16T21:36:09.109Z,35.80
2019-02-16T21:39:15.088Z,34.83
2019-02-16T21:42:08.932Z,34.23
2019-02-16T21:45:17.613Z,31.90
2019-02-16T21:48:23.666Z,31.77
2019-02-16T21:51:19.184Z,30.57
2019-02-16T21:54:14.432Z,31.00
2019-02-16T21:57:06.053Z,31.53
2019-02-16T22:00:04.084Z,31.33
2019-02-16T22:03:12.836Z,32.50
2019-02-16T22:06:19.060Z,33.10
2019-02-16T22:09:18.990Z,33.60
2019-02-16T22:12:25.195Z,31.57
2019-02-16T22:15:12.188Z,31.20
2019-02-16T22:17:59.351Z,31.43
2019-02-16T22:20:46.136Z,37.50
2019-02-16T22:23:32.392Z,34.23
2019-02-16T22:26:19.085Z,32.10
2019-02-16T22:29:06.188Z,30.57
2019-02-16T22:31:53.192Z,31.47
2019-02-16T22:34:40.139Z,31.03
2019-02-16T22:37:26.819Z,29.80
2019-02-16T22:40:13.920Z,30.63
2019-02-16T22:43:00.544Z,30.07
2019-02-16T22:45:47.028Z,30.43
2019-02-16T22:48:33.311Z,30.13
2019-02-16T22:51:20.364Z,31.13
2019-02-16T22:54:06.664Z,31.67
2019-02-16T22:56:53.720Z,31.67
2019-02-16T22:59:40.772Z,33.60
2019-02-16T23:02:27.364Z,31.80
2019-02-16T23:05:13.783Z,30.53
2019-02-16T23:08:00.452Z,30.23
2019-02-16T23:10:47.447Z,31.10
2019-02-16T23:13:34.491Z,32.03
2019-02-16T23:16:21.096Z,31.47
2019-02-16T23:19:08.548Z,38.73
2019-02-16T23:21:55.241Z,32.30
2019-02-16T23:24:41.533Z,33.43
2019-02-16T23:27:28.527Z,32.70
2019-02-16T23:30:15.792Z,32.93
2019-02-16T23:33:02.137Z,33.00
2019-02-16T23:35:49.095Z,31.57
2019-02-16T23:38:35.475Z,31.80
2019-02-16T23:41:22.550Z,32.57
2019-02-16T23:44:09.556Z,32.93
2019-02-16T23:46:56.648Z,32.47
2019-02-16T23:49:43.481Z,35.87
2019-02-16T23:52:30.184Z,34.20
2019-02-16T23:55:16.584Z,32.60
2019-02-16T23:58:03.515Z,31.20
